sensor_id;sensor_type;location;lat;lon;timestamp;P1;durP1;ratioP1;P2;durP2;ratioP2
28958;SDS011;16066;0.000;0.000;2022-10-16T00:01:57;2.90;;;2.50;;
28958;SDS011;16066;0.000;0.000;2022-10-16T00:04:22;3.00;;;2.57;;
28958;SDS011;16066;0.000;0.000;2022-10-16T00:06:48;4.27;;;2.70;;
28958;SDS011;16066;0.000;0.000;2022-10-16T00:09:13;3.60;;;2.70;;
28958;SDS011;16066;0.000;0.000;2022-10-16T00:11:39;3.67;;;2.60;;
28958;SDS011;16066;0.000;0.000;2022-10-16T00:14:07;3.50;;;2.70;;
28958;SDS011;16066;0.000;0.000;2022-10-16T00:16:35;5.23;;;3.80;;
28958;SDS011;16066;0.000;0.000;2022-10-16T00:19:01;2.73;;;2.40;;
28958;SDS011;16066;0.000;0.000;2022-10-16T00:21:28;3.73;;;2.73;;
28958;SDS011;16066;0.000;0.000;2022-10-16T00:23:59;4.33;;;3.23;;
28958;SDS011;16066;0.000;0.000;2022-10-16T00:26:26;3.50;;;2.77;;
28958;SDS011;16066;0.000;0.000;2022-10-16T00:28:53;3.00;;;2.43;;
28958;SDS011;16066;0.000;0.000;2022-10-16T00:31:19;4.00;;;2.70;;
28958;SDS011;16066;0.000;0.000;2022-10-16T00:33:46;4.93;;;2.87;;
28958;SDS011;16066;0.000;0.000;2022-10-16T00:36:16;3.80;;;2.90;;
28958;SDS011;16066;0.000;0.000;2022-10-16T00:38:44;3.40;;;2.67;;
28958;SDS011;16066;0.000;0.000;2022-10-16T00:41:10;3.93;;;2.90;;
28958;SDS011;16066;0.000;0.000;2022-10-16T00:43:43;4.47;;;2.90;;
28958;SDS011;16066;0.000;0.000;2022-10-16T00:46:21;4.10;;;2.90;;
28958;SDS011;16066;0.000;0.000;2022-10-16T00:48:48;4.13;;;2.70;;
28958;SDS011;16066;0.000;0.000;2022-10-16T00:51:49;3.27;;;2.67;;
28958;SDS011;16066;0.000;0.000;2022-10-16T00:56:45;2.90;;;2.40;;
28958;SDS011;16066;0.000;0.000;2022-10-16T00:59:14;3.17;;;2.60;;
28958;SDS011;16066;0.000;0.000;2022-10-16T01:02:14;9.60;;;3.27;;
28958;SDS011;16066;0.000;0.000;2022-10-16T01:04:42;3.97;;;3.20;;
28958;SDS011;16066;0.000;0.000;2022-10-16T01:07:30;3.27;;;2.60;;
28958;SDS011;16066;0.000;0.000;2022-10-16T01:18:29;3.57;;;2.97;;
28958;SDS011;16066;0.000;0.000;2022-10-16T01:21:03;3.27;;;2.50;;
28958;SDS011;16066;0.000;0.000;2022-10-16T01:26:35;2.93;;;2.60;;
28958;SDS011;16066;0.000;0.000;2022-10-16T01:29:09;2.70;;;2.30;;
28958;SDS011;16066;0.000;0.000;2022-10-16T01:31:42;3.10;;;2.73;;
28958;SDS011;16066;0.000;0.000;2022-10-16T01:34:14;4.30;;;2.90;;
28958;SDS011;16066;0.000;0.000;2022-10-16T01:36:45;3.70;;;2.93;;
28958;SDS011;16066;0.000;0.000;2022-10-16T01:39:16;3.07;;;2.77;;
28958;SDS011;16066;0.000;0.000;2022-10-16T01:41:49;3.37;;;2.90;;
28958;SDS011;16066;0.000;0.000;2022-10-16T01:44:20;3.60;;;3.07;;
28958;SDS011;16066;0.000;0.000;2022-10-16T01:46:50;3.90;;;2.57;;
28958;SDS011;16066;0.000;0.000;2022-10-16T01:49:17;3.03;;;2.50;;
28958;SDS011;16066;0.000;0.000;2022-10-16T01:51:45;4.17;;;2.90;;
28958;SDS011;16066;0.000;0.000;2022-10-16T01:54:14;3.13;;;2.33;;
28958;SDS011;16066;0.000;0.000;2022-10-16T01:56:43;3.90;;;3.10;;
28958;SDS011;16066;0.000;0.000;2022-10-16T01:59:11;4.23;;;3.07;;
28958;SDS011;16066;0.000;0.000;2022-10-16T02:01:40;3.10;;;2.80;;
28958;SDS011;16066;0.000;0.000;2022-10-16T02:04:14;3.27;;;2.60;;
28958;SDS011;16066;0.000;0.000;2022-10-16T02:06:46;3.10;;;2.80;;
28958;SDS011;16066;0.000;0.000;2022-10-16T02:09:12;2.70;;;2.50;;
28958;SDS011;16066;0.000;0.000;2022-10-16T02:11:40;4.30;;;2.80;;
28958;SDS011;16066;0.000;0.000;2022-10-16T02:14:06;4.03;;;2.27;;
28958;SDS011;16066;0.000;0.000;2022-10-16T02:16:43;4.37;;;3.17;;
28958;SDS011;16066;0.000;0.000;2022-10-16T02:19:10;3.43;;;2.73;;
28958;SDS011;16066;0.000;0.000;2022-10-16T02:21:43;3.73;;;2.73;;
28958;SDS011;16066;0.000;0.000;2022-10-16T02:24:17;3.13;;;2.60;;
28958;SDS011;16066;0.000;0.000;2022-10-16T02:26:59;7.80;;;3.03;;
28958;SDS011;16066;0.000;0.000;2022-10-16T02:29:33;4.50;;;3.50;;
28958;SDS011;16066;0.000;0.000;2022-10-16T02:32:04;3.43;;;3.10;;
28958;SDS011;16066;0.000;0.000;2022-10-16T02:34:32;4.60;;;3.03;;
28958;SDS011;16066;0.000;0.000;2022-10-16T02:36:58;5.77;;;2.50;;
28958;SDS011;16066;0.000;0.000;2022-10-16T02:39:26;3.60;;;3.07;;
28958;SDS011;16066;0.000;0.000;2022-10-16T02:41:53;3.60;;;3.03;;
28958;SDS011;16066;0.000;0.000;2022-10-16T02:44:19;3.37;;;3.00;;
28958;SDS011;16066;0.000;0.000;2022-10-16T02:46:44;4.33;;;3.40;;
28958;SDS011;16066;0.000;0.000;2022-10-16T02:49:10;3.90;;;2.97;;
28958;SDS011;16066;0.000;0.000;2022-10-16T02:51:35;3.80;;;3.40;;
28958;SDS011;16066;0.000;0.000;2022-10-16T02:54:01;5.10;;;3.30;;
28958;SDS011;16066;0.000;0.000;2022-10-16T02:56:28;3.07;;;2.70;;
28958;SDS011;16066;0.000;0.000;2022-10-16T02:58:54;5.83;;;2.77;;
28958;SDS011;16066;0.000;0.000;2022-10-16T03:01:20;4.10;;;2.53;;
28958;SDS011;16066;0.000;0.000;2022-10-16T03:03:46;2.90;;;2.60;;
28958;SDS011;16066;0.000;0.000;2022-10-16T03:06:11;3.93;;;3.20;;
28958;SDS011;16066;0.000;0.000;2022-10-16T03:08:37;3.60;;;3.00;;
28958;SDS011;16066;0.000;0.000;2022-10-16T03:11:02;11.03;;;3.00;;
28958;SDS011;16066;0.000;0.000;2022-10-16T03:13:28;3.43;;;2.97;;
28958;SDS011;16066;0.000;0.000;2022-10-16T03:15:53;4.07;;;2.77;;
28958;SDS011;16066;0.000;0.000;2022-10-16T03:18:19;2.87;;;2.20;;
28958;SDS011;16066;0.000;0.000;2022-10-16T03:20:45;3.53;;;2.93;;
28958;SDS011;16066;0.000;0.000;2022-10-16T03:23:10;4.13;;;3.07;;
28958;SDS011;16066;0.000;0.000;2022-10-16T03:25:36;4.17;;;2.80;;
28958;SDS011;16066;0.000;0.000;2022-10-16T03:28:02;4.33;;;3.33;;
28958;SDS011;16066;0.000;0.000;2022-10-16T03:30:28;4.40;;;3.27;;
28958;SDS011;16066;0.000;0.000;2022-10-16T03:32:53;3.60;;;2.60;;
28958;SDS011;16066;0.000;0.000;2022-10-16T03:35:20;3.87;;;2.87;;
28958;SDS011;16066;0.000;0.000;2022-10-16T03:37:46;3.37;;;3.07;;
28958;SDS011;16066;0.000;0.000;2022-10-16T03:40:11;4.17;;;3.20;;
28958;SDS011;16066;0.000;0.000;2022-10-16T03:42:38;3.73;;;3.20;;
28958;SDS011;16066;0.000;0.000;2022-10-16T03:45:03;4.80;;;2.70;;
28958;SDS011;16066;0.000;0.000;2022-10-16T03:47:30;3.47;;;2.97;;
28958;SDS011;16066;0.000;0.000;2022-10-16T03:49:57;3.43;;;2.90;;
28958;SDS011;16066;0.000;0.000;2022-10-16T03:52:23;3.93;;;2.87;;
28958;SDS011;16066;0.000;0.000;2022-10-16T03:54:49;3.20;;;2.60;;
28958;SDS011;16066;0.000;0.000;2022-10-16T03:57:14;4.07;;;3.20;;
28958;SDS011;16066;0.000;0.000;2022-10-16T03:59:40;2.90;;;2.60;;
28958;SDS011;16066;0.000;0.000;2022-10-16T04:02:05;3.30;;;3.00;;
28958;SDS011;16066;0.000;0.000;2022-10-16T04:04:31;4.20;;;3.07;;
28958;SDS011;16066;0.000;0.000;2022-10-16T04:06:56;4.10;;;3.10;;
28958;SDS011;16066;0.000;0.000;2022-10-16T04:09:22;3.10;;;2.80;;
28958;SDS011;16066;0.000;0.000;2022-10-16T04:11:47;3.60;;;2.67;;
28958;SDS011;16066;0.000;0.000;2022-10-16T04:14:13;3.77;;;3.10;;
28958;SDS011;16066;0.000;0.000;2022-10-16T04:16:39;4.70;;;3.00;;
28958;SDS011;16066;0.000;0.000;2022-10-16T04:19:04;2.80;;;2.50;;
28958;SDS011;16066;0.000;0.000;2022-10-16T04:21:30;3.07;;;2.77;;
28958;SDS011;16066;0.000;0.000;2022-10-16T04:23:55;3.30;;;2.63;;
28958;SDS011;16066;0.000;0.000;2022-10-16T04:26:21;2.87;;;2.57;;
28958;SDS011;16066;0.000;0.000;2022-10-16T04:28:46;4.60;;;3.10;;
28958;SDS011;16066;0.000;0.000;2022-10-16T04:31:12;4.10;;;3.10;;
28958;SDS011;16066;0.000;0.000;2022-10-16T04:33:37;3.80;;;3.40;;
28958;SDS011;16066;0.000;0.000;2022-10-16T04:36:03;3.17;;;2.87;;
28958;SDS011;16066;0.000;0.000;2022-10-16T04:38:29;3.10;;;2.77;;
28958;SDS011;16066;0.000;0.000;2022-10-16T04:40:55;5.60;;;3.53;;
28958;SDS011;16066;0.000;0.000;2022-10-16T04:43:21;4.80;;;2.80;;
28958;SDS011;16066;0.000;0.000;2022-10-16T04:45:47;3.53;;;3.00;;
28958;SDS011;16066;0.000;0.000;2022-10-16T04:48:12;5.33;;;3.83;;
28958;SDS011;16066;0.000;0.000;2022-10-16T04:50:38;3.70;;;3.00;;
28958;SDS011;16066;0.000;0.000;2022-10-16T04:53:03;4.70;;;2.93;;
28958;SDS011;16066;0.000;0.000;2022-10-16T04:55:29;4.77;;;3.70;;
28958;SDS011;16066;0.000;0.000;2022-10-16T04:57:55;4.10;;;3.27;;
28958;SDS011;16066;0.000;0.000;2022-10-16T05:00:20;3.87;;;3.47;;
28958;SDS011;16066;0.000;0.000;2022-10-16T05:02:47;3.87;;;3.23;;
28958;SDS011;16066;0.000;0.000;2022-10-16T05:05:14;4.47;;;3.50;;
28958;SDS011;16066;0.000;0.000;2022-10-16T05:07:40;3.67;;;2.73;;
28958;SDS011;16066;0.000;0.000;2022-10-16T05:10:05;9.33;;;2.93;;
28958;SDS011;16066;0.000;0.000;2022-10-16T05:12:31;5.20;;;3.10;;
28958;SDS011;16066;0.000;0.000;2022-10-16T05:14:57;3.10;;;2.67;;
28958;SDS011;16066;0.000;0.000;2022-10-16T05:17:23;3.83;;;3.07;;
28958;SDS011;16066;0.000;0.000;2022-10-16T05:19:50;4.20;;;3.50;;
28958;SDS011;16066;0.000;0.000;2022-10-16T05:22:15;5.37;;;2.70;;
28958;SDS011;16066;0.000;0.000;2022-10-16T05:24:41;3.63;;;2.80;;
28958;SDS011;16066;0.000;0.000;2022-10-16T05:27:06;4.10;;;3.17;;
28958;SDS011;16066;0.000;0.000;2022-10-16T05:29:32;3.60;;;2.97;;
28958;SDS011;16066;0.000;0.000;2022-10-16T05:31:57;3.60;;;2.97;;
28958;SDS011;16066;0.000;0.000;2022-10-16T05:34:23;3.80;;;2.93;;
28958;SDS011;16066;0.000;0.000;2022-10-16T05:36:49;4.23;;;3.10;;
28958;SDS011;16066;0.000;0.000;2022-10-16T05:39:15;4.57;;;3.40;;
28958;SDS011;16066;0.000;0.000;2022-10-16T05:41:41;3.40;;;3.10;;
28958;SDS011;16066;0.000;0.000;2022-10-16T05:44:07;4.17;;;3.03;;
28958;SDS011;16066;0.000;0.000;2022-10-16T05:46:33;4.07;;;3.40;;
28958;SDS011;16066;0.000;0.000;2022-10-16T05:48:58;4.23;;;3.60;;
28958;SDS011;16066;0.000;0.000;2022-10-16T05:51:24;5.90;;;3.20;;
28958;SDS011;16066;0.000;0.000;2022-10-16T05:53:50;4.00;;;2.93;;
28958;SDS011;16066;0.000;0.000;2022-10-16T05:56:17;4.10;;;3.20;;
28958;SDS011;16066;0.000;0.000;2022-10-16T05:58:42;4.07;;;3.30;;
28958;SDS011;16066;0.000;0.000;2022-10-16T06:01:13;5.23;;;3.37;;
28958;SDS011;16066;0.000;0.000;2022-10-16T06:03:40;4.73;;;3.13;;
28958;SDS011;16066;0.000;0.000;2022-10-16T06:06:10;4.20;;;3.50;;
28958;SDS011;16066;0.000;0.000;2022-10-16T06:08:40;5.17;;;3.73;;
28958;SDS011;16066;0.000;0.000;2022-10-16T06:11:08;3.83;;;3.07;;
28958;SDS011;16066;0.000;0.000;2022-10-16T06:13:35;4.70;;;2.97;;
28958;SDS011;16066;0.000;0.000;2022-10-16T06:16:01;4.67;;;3.70;;
28958;SDS011;16066;0.000;0.000;2022-10-16T06:18:28;6.13;;;3.80;;
28958;SDS011;16066;0.000;0.000;2022-10-16T06:20:54;5.43;;;3.10;;
28958;SDS011;16066;0.000;0.000;2022-10-16T06:23:21;4.33;;;3.10;;
28958;SDS011;16066;0.000;0.000;2022-10-16T06:25:47;5.47;;;3.40;;
28958;SDS011;16066;0.000;0.000;2022-10-16T06:28:13;4.73;;;3.47;;
28958;SDS011;16066;0.000;0.000;2022-10-16T06:30:40;4.93;;;3.63;;
28958;SDS011;16066;0.000;0.000;2022-10-16T06:33:06;4.33;;;3.20;;
28958;SDS011;16066;0.000;0.000;2022-10-16T06:35:31;3.70;;;2.90;;
28958;SDS011;16066;0.000;0.000;2022-10-16T06:37:57;5.07;;;3.10;;
28958;SDS011;16066;0.000;0.000;2022-10-16T06:40:23;4.50;;;3.47;;
28958;SDS011;16066;0.000;0.000;2022-10-16T06:42:48;4.20;;;3.10;;
28958;SDS011;16066;0.000;0.000;2022-10-16T06:45:15;3.97;;;3.17;;
28958;SDS011;16066;0.000;0.000;2022-10-16T06:47:40;3.27;;;2.73;;
28958;SDS011;16066;0.000;0.000;2022-10-16T06:50:06;3.93;;;2.97;;
28958;SDS011;16066;0.000;0.000;2022-10-16T06:52:32;4.57;;;2.93;;
28958;SDS011;16066;0.000;0.000;2022-10-16T06:54:58;7.57;;;3.53;;
28958;SDS011;16066;0.000;0.000;2022-10-16T06:57:24;4.10;;;3.47;;
28958;SDS011;16066;0.000;0.000;2022-10-16T06:59:49;8.43;;;3.50;;
28958;SDS011;16066;0.000;0.000;2022-10-16T07:02:15;3.50;;;3.17;;
28958;SDS011;16066;0.000;0.000;2022-10-16T07:04:40;5.00;;;2.70;;
28958;SDS011;16066;0.000;0.000;2022-10-16T07:07:06;3.67;;;3.20;;
28958;SDS011;16066;0.000;0.000;2022-10-16T07:09:31;3.10;;;2.73;;
28958;SDS011;16066;0.000;0.000;2022-10-16T07:11:57;3.80;;;2.83;;
28958;SDS011;16066;0.000;0.000;2022-10-16T07:14:22;3.63;;;2.43;;
28958;SDS011;16066;0.000;0.000;2022-10-16T07:16:48;5.33;;;2.07;;
28958;SDS011;16066;0.000;0.000;2022-10-16T07:19:14;3.63;;;2.27;;
28958;SDS011;16066;0.000;0.000;2022-10-16T07:21:42;1.73;;;1.63;;
28958;SDS011;16066;0.000;0.000;2022-10-16T07:24:12;5.03;;;2.03;;
28958;SDS011;16066;0.000;0.000;2022-10-16T07:26:39;2.30;;;1.63;;
28958;SDS011;16066;0.000;0.000;2022-10-16T07:29:18;6.20;;;1.90;;
28958;SDS011;16066;0.000;0.000;2022-10-16T07:31:45;3.47;;;2.10;;
28958;SDS011;16066;0.000;0.000;2022-10-16T07:34:11;3.80;;;2.10;;
28958;SDS011;16066;0.000;0.000;2022-10-16T07:36:38;4.93;;;2.40;;
28958;SDS011;16066;0.000;0.000;2022-10-16T07:39:04;1.93;;;1.70;;
28958;SDS011;16066;0.000;0.000;2022-10-16T07:41:30;2.80;;;2.47;;
28958;SDS011;16066;0.000;0.000;2022-10-16T07:43:58;2.17;;;1.90;;
28958;SDS011;16066;0.000;0.000;2022-10-16T07:46:26;8.60;;;2.20;;
28958;SDS011;16066;0.000;0.000;2022-10-16T07:48:52;4.00;;;1.80;;
28958;SDS011;16066;0.000;0.000;2022-10-16T07:51:19;4.43;;;2.10;;
28958;SDS011;16066;0.000;0.000;2022-10-16T07:53:46;4.17;;;1.90;;
28958;SDS011;16066;0.000;0.000;2022-10-16T07:56:12;5.57;;;1.87;;
28958;SDS011;16066;0.000;0.000;2022-10-16T07:58:38;5.07;;;2.03;;
28958;SDS011;16066;0.000;0.000;2022-10-16T08:01:05;8.83;;;2.20;;
28958;SDS011;16066;0.000;0.000;2022-10-16T08:03:35;10.00;;;2.40;;
28958;SDS011;16066;0.000;0.000;2022-10-16T08:06:01;3.30;;;2.00;;
28958;SDS011;16066;0.000;0.000;2022-10-16T08:08:27;7.33;;;2.13;;
28958;SDS011;16066;0.000;0.000;2022-10-16T08:10:53;4.83;;;1.90;;
28958;SDS011;16066;0.000;0.000;2022-10-16T08:13:18;8.33;;;1.90;;
28958;SDS011;16066;0.000;0.000;2022-10-16T08:15:45;8.77;;;2.00;;
28958;SDS011;16066;0.000;0.000;2022-10-16T08:18:11;3.37;;;2.10;;
28958;SDS011;16066;0.000;0.000;2022-10-16T08:20:38;7.23;;;1.60;;
28958;SDS011;16066;0.000;0.000;2022-10-16T08:23:06;2.20;;;1.53;;
28958;SDS011;16066;0.000;0.000;2022-10-16T08:25:34;2.67;;;1.50;;
28958;SDS011;16066;0.000;0.000;2022-10-16T08:28:02;3.87;;;1.53;;
28958;SDS011;16066;0.000;0.000;2022-10-16T08:30:32;5.17;;;3.10;;
28958;SDS011;16066;0.000;0.000;2022-10-16T08:32:58;5.97;;;2.10;;
28958;SDS011;16066;0.000;0.000;2022-10-16T08:35:24;5.70;;;2.37;;
28958;SDS011;16066;0.000;0.000;2022-10-16T08:37:49;2.53;;;1.77;;
28958;SDS011;16066;0.000;0.000;2022-10-16T08:40:28;2.17;;;1.40;;
28958;SDS011;16066;0.000;0.000;2022-10-16T08:48:14;2.80;;;1.60;;
28958;SDS011;16066;0.000;0.000;2022-10-16T08:50:48;2.17;;;1.60;;
28958;SDS011;16066;0.000;0.000;2022-10-16T08:53:59;3.53;;;1.67;;
28958;SDS011;16066;0.000;0.000;2022-10-16T08:56:09;4.23;;;1.93;;
28958;SDS011;16066;0.000;0.000;2022-10-16T08:58:35;4.83;;;1.80;;
28958;SDS011;16066;0.000;0.000;2022-10-16T09:01:01;8.00;;;1.70;;
28958;SDS011;16066;0.000;0.000;2022-10-16T09:08:57;1.73;;;1.33;;
28958;SDS011;16066;0.000;0.000;2022-10-16T09:20:08;2.23;;;1.30;;
28958;SDS011;16066;0.000;0.000;2022-10-16T09:25:30;1.50;;;1.30;;
28958;SDS011;16066;0.000;0.000;2022-10-16T09:27:57;2.17;;;1.40;;
28958;SDS011;16066;0.000;0.000;2022-10-16T09:30:22;4.47;;;1.40;;
28958;SDS011;16066;0.000;0.000;2022-10-16T09:32:52;1.77;;;1.20;;
28958;SDS011;16066;0.000;0.000;2022-10-16T09:36:01;2.03;;;1.20;;
28958;SDS011;16066;0.000;0.000;2022-10-16T09:38:09;2.70;;;1.40;;
28958;SDS011;16066;0.000;0.000;2022-10-16T09:40:45;2.53;;;1.80;;
28958;SDS011;16066;0.000;0.000;2022-10-16T09:43:27;3.00;;;1.50;;
28958;SDS011;16066;0.000;0.000;2022-10-16T09:46:04;1.00;;;0.90;;
28958;SDS011;16066;0.000;0.000;2022-10-16T09:48:39;2.57;;;1.20;;
28958;SDS011;16066;0.000;0.000;2022-10-16T09:51:20;2.77;;;1.37;;
28958;SDS011;16066;0.000;0.000;2022-10-16T09:53:53;2.80;;;1.47;;
28958;SDS011;16066;0.000;0.000;2022-10-16T09:56:25;3.50;;;1.30;;
28958;SDS011;16066;0.000;0.000;2022-10-16T09:58:57;3.10;;;1.30;;
28958;SDS011;16066;0.000;0.000;2022-10-16T10:01:37;3.53;;;1.30;;
28958;SDS011;16066;0.000;0.000;2022-10-16T10:04:06;4.07;;;1.17;;
28958;SDS011;16066;0.000;0.000;2022-10-16T10:11:43;1.27;;;1.17;;
28958;SDS011;16066;0.000;0.000;2022-10-16T10:14:16;2.73;;;1.27;;
28958;SDS011;16066;0.000;0.000;2022-10-16T10:16:45;3.17;;;1.23;;
28958;SDS011;16066;0.000;0.000;2022-10-16T10:19:15;4.00;;;1.33;;
28958;SDS011;16066;0.000;0.000;2022-10-16T10:21:42;1.30;;;1.20;;
28958;SDS011;16066;0.000;0.000;2022-10-16T10:24:12;3.00;;;1.67;;
28958;SDS011;16066;0.000;0.000;2022-10-16T10:26:40;2.93;;;1.37;;
28958;SDS011;16066;0.000;0.000;2022-10-16T10:37:35;5.50;;;1.50;;
28958;SDS011;16066;0.000;0.000;2022-10-16T10:40:34;2.00;;;1.20;;
28958;SDS011;16066;0.000;0.000;2022-10-16T10:43:17;1.83;;;1.17;;
28958;SDS011;16066;0.000;0.000;2022-10-16T10:45:59;3.83;;;1.53;;
28958;SDS011;16066;0.000;0.000;2022-10-16T10:51:40;1.83;;;1.10;;
28958;SDS011;16066;0.000;0.000;2022-10-16T11:05:16;2.13;;;1.17;;
28958;SDS011;16066;0.000;0.000;2022-10-16T11:08:11;3.53;;;1.10;;
28958;SDS011;16066;0.000;0.000;2022-10-16T11:10:47;1.10;;;0.90;;
28958;SDS011;16066;0.000;0.000;2022-10-16T11:13:27;2.83;;;1.63;;
28958;SDS011;16066;0.000;0.000;2022-10-16T11:16:15;2.50;;;1.10;;
28958;SDS011;16066;0.000;0.000;2022-10-16T11:21:54;1.80;;;1.30;;
28958;SDS011;16066;0.000;0.000;2022-10-16T11:27:12;2.70;;;1.20;;
28958;SDS011;16066;0.000;0.000;2022-10-16T11:29:53;3.23;;;1.10;;
28958;SDS011;16066;0.000;0.000;2022-10-16T11:32:31;2.03;;;1.10;;
28958;SDS011;16066;0.000;0.000;2022-10-16T11:35:19;2.30;;;1.20;;
28958;SDS011;16066;0.000;0.000;2022-10-16T11:37:49;1.77;;;1.20;;
28958;SDS011;16066;0.000;0.000;2022-10-16T11:40:25;1.50;;;1.30;;
28958;SDS011;16066;0.000;0.000;2022-10-16T11:42:59;4.07;;;1.53;;
28958;SDS011;16066;0.000;0.000;2022-10-16T11:45:45;5.47;;;1.30;;
28958;SDS011;16066;0.000;0.000;2022-10-16T11:54:41;1.70;;;1.43;;
28958;SDS011;16066;0.000;0.000;2022-10-16T12:00:09;3.47;;;1.40;;
28958;SDS011;16066;0.000;0.000;2022-10-16T12:03:08;1.67;;;0.90;;
28958;SDS011;16066;0.000;0.000;2022-10-16T12:05:55;2.30;;;1.23;;
28958;SDS011;16066;0.000;0.000;2022-10-16T12:08:25;1.97;;;1.67;;
28958;SDS011;16066;0.000;0.000;2022-10-16T12:10:52;2.40;;;1.70;;
28958;SDS011;16066;0.000;0.000;2022-10-16T12:13:31;3.03;;;1.60;;
28958;SDS011;16066;0.000;0.000;2022-10-16T12:18:36;1.60;;;1.23;;
28958;SDS011;16066;0.000;0.000;2022-10-16T12:21:02;9.30;;;6.30;;
28958;SDS011;16066;0.000;0.000;2022-10-16T12:23:32;13.63;;;11.23;;
28958;SDS011;16066;0.000;0.000;2022-10-16T12:26:01;41.73;;;29.23;;
28958;SDS011;16066;0.000;0.000;2022-10-16T12:28:28;49.33;;;34.93;;
28958;SDS011;16066;0.000;0.000;2022-10-16T12:30:57;80.00;;;60.50;;
28958;SDS011;16066;0.000;0.000;2022-10-16T12:33:31;94.93;;;66.37;;
28958;SDS011;16066;0.000;0.000;2022-10-16T12:36:02;110.23;;;83.17;;
28958;SDS011;16066;0.000;0.000;2022-10-16T12:38:36;113.23;;;85.77;;
28958;SDS011;16066;0.000;0.000;2022-10-16T12:43:58;108.40;;;83.50;;
28958;SDS011;16066;0.000;0.000;2022-10-16T12:51:38;105.37;;;82.90;;
28958;SDS011;16066;0.000;0.000;2022-10-16T12:54:12;109.10;;;82.10;;
28958;SDS011;16066;0.000;0.000;2022-10-16T12:56:44;89.70;;;69.80;;
28958;SDS011;16066;0.000;0.000;2022-10-16T13:05:01;82.33;;;60.77;;
28958;SDS011;16066;0.000;0.000;2022-10-16T13:07:59;67.40;;;54.03;;
28958;SDS011;16066;0.000;0.000;2022-10-16T13:10:53;78.60;;;58.00;;
28958;SDS011;16066;0.000;0.000;2022-10-16T13:13:34;73.70;;;60.10;;
28958;SDS011;16066;0.000;0.000;2022-10-16T13:29:34;59.77;;;47.93;;
28958;SDS011;16066;0.000;0.000;2022-10-16T13:32:00;56.73;;;44.27;;
28958;SDS011;16066;0.000;0.000;2022-10-16T13:34:31;56.30;;;42.87;;
28958;SDS011;16066;0.000;0.000;2022-10-16T13:36:57;55.73;;;43.77;;
28958;SDS011;16066;0.000;0.000;2022-10-16T13:39:27;53.60;;;42.63;;
28958;SDS011;16066;0.000;0.000;2022-10-16T13:41:58;49.07;;;39.23;;
28958;SDS011;16066;0.000;0.000;2022-10-16T13:44:27;46.50;;;36.50;;
28958;SDS011;16066;0.000;0.000;2022-10-16T13:46:59;43.57;;;33.40;;
28958;SDS011;16066;0.000;0.000;2022-10-16T13:49:25;47.50;;;35.50;;
28958;SDS011;16066;0.000;0.000;2022-10-16T13:51:54;43.20;;;34.37;;
28958;SDS011;16066;0.000;0.000;2022-10-16T13:54:25;40.67;;;33.77;;
28958;SDS011;16066;0.000;0.000;2022-10-16T13:56:51;42.57;;;32.50;;
28958;SDS011;16066;0.000;0.000;2022-10-16T13:59:36;39.50;;;31.27;;
28958;SDS011;16066;0.000;0.000;2022-10-16T14:02:45;38.00;;;30.27;;
28958;SDS011;16066;0.000;0.000;2022-10-16T14:04:56;36.37;;;28.53;;
28958;SDS011;16066;0.000;0.000;2022-10-16T14:07:27;36.97;;;30.07;;
28958;SDS011;16066;0.000;0.000;2022-10-16T14:09:56;34.57;;;27.60;;
28958;SDS011;16066;0.000;0.000;2022-10-16T14:12:25;30.20;;;25.60;;
28958;SDS011;16066;0.000;0.000;2022-10-16T14:14:52;31.97;;;26.30;;
28958;SDS011;16066;0.000;0.000;2022-10-16T14:17:26;29.67;;;24.27;;
28958;SDS011;16066;0.000;0.000;2022-10-16T14:19:54;34.97;;;25.50;;
28958;SDS011;16066;0.000;0.000;2022-10-16T14:24:56;29.03;;;24.20;;
28958;SDS011;16066;0.000;0.000;2022-10-16T14:27:30;28.80;;;21.40;;
28958;SDS011;16066;0.000;0.000;2022-10-16T14:32:52;27.73;;;22.00;;
28958;SDS011;16066;0.000;0.000;2022-10-16T14:35:27;25.27;;;19.97;;
28958;SDS011;16066;0.000;0.000;2022-10-16T14:37:58;24.17;;;19.20;;
28958;SDS011;16066;0.000;0.000;2022-10-16T14:40:29;25.73;;;19.50;;
28958;SDS011;16066;0.000;0.000;2022-10-16T14:42:57;23.10;;;19.13;;
28958;SDS011;16066;0.000;0.000;2022-10-16T14:45:25;27.83;;;20.43;;
28958;SDS011;16066;0.000;0.000;2022-10-16T14:47:56;19.50;;;16.63;;
28958;SDS011;16066;0.000;0.000;2022-10-16T14:50:23;19.30;;;16.00;;
28958;SDS011;16066;0.000;0.000;2022-10-16T14:52:49;20.47;;;16.13;;
28958;SDS011;16066;0.000;0.000;2022-10-16T14:55:15;19.00;;;15.50;;
28958;SDS011;16066;0.000;0.000;2022-10-16T14:57:42;19.97;;;16.03;;
28958;SDS011;16066;0.000;0.000;2022-10-16T15:00:13;17.47;;;15.50;;
28958;SDS011;16066;0.000;0.000;2022-10-16T15:02:45;19.70;;;15.07;;
28958;SDS011;16066;0.000;0.000;2022-10-16T15:05:16;17.00;;;15.20;;
28958;SDS011;16066;0.000;0.000;2022-10-16T15:07:42;17.20;;;14.10;;
28958;SDS011;16066;0.000;0.000;2022-10-16T15:10:07;19.67;;;15.30;;
28958;SDS011;16066;0.000;0.000;2022-10-16T15:12:33;16.50;;;14.00;;
28958;SDS011;16066;0.000;0.000;2022-10-16T15:14:59;17.10;;;13.23;;
28958;SDS011;16066;0.000;0.000;2022-10-16T15:17:24;17.20;;;13.80;;
28958;SDS011;16066;0.000;0.000;2022-10-16T15:19:50;16.77;;;14.20;;
28958;SDS011;16066;0.000;0.000;2022-10-16T15:22:16;16.47;;;13.70;;
28958;SDS011;16066;0.000;0.000;2022-10-16T15:24:42;21.53;;;13.40;;
28958;SDS011;16066;0.000;0.000;2022-10-16T15:27:07;17.67;;;14.20;;
28958;SDS011;16066;0.000;0.000;2022-10-16T15:29:33;17.13;;;14.33;;
28958;SDS011;16066;0.000;0.000;2022-10-16T15:31:58;16.63;;;13.20;;
28958;SDS011;16066;0.000;0.000;2022-10-16T15:34:24;17.93;;;14.07;;
28958;SDS011;16066;0.000;0.000;2022-10-16T15:36:49;19.03;;;14.17;;
28958;SDS011;16066;0.000;0.000;2022-10-16T15:39:16;21.00;;;13.93;;
28958;SDS011;16066;0.000;0.000;2022-10-16T15:41:44;24.17;;;14.73;;
28958;SDS011;16066;0.000;0.000;2022-10-16T15:44:15;25.43;;;16.43;;
28958;SDS011;16066;0.000;0.000;2022-10-16T15:46:44;29.13;;;14.70;;
28958;SDS011;16066;0.000;0.000;2022-10-16T15:49:11;25.07;;;15.87;;
28958;SDS011;16066;0.000;0.000;2022-10-16T15:51:38;25.50;;;15.13;;
28958;SDS011;16066;0.000;0.000;2022-10-16T15:54:04;25.80;;;15.50;;
28958;SDS011;16066;0.000;0.000;2022-10-16T15:56:30;27.17;;;15.47;;
28958;SDS011;16066;0.000;0.000;2022-10-16T15:58:58;22.87;;;14.00;;
28958;SDS011;16066;0.000;0.000;2022-10-16T16:01:24;20.87;;;14.47;;
28958;SDS011;16066;0.000;0.000;2022-10-16T16:03:54;24.17;;;14.00;;
28958;SDS011;16066;0.000;0.000;2022-10-16T16:06:20;22.10;;;13.73;;
28958;SDS011;16066;0.000;0.000;2022-10-16T16:08:46;18.97;;;13.20;;
28958;SDS011;16066;0.000;0.000;2022-10-16T16:11:12;20.20;;;13.27;;
28958;SDS011;16066;0.000;0.000;2022-10-16T16:13:39;23.80;;;14.53;;
28958;SDS011;16066;0.000;0.000;2022-10-16T16:16:06;16.77;;;13.37;;
28958;SDS011;16066;0.000;0.000;2022-10-16T16:18:33;22.50;;;14.43;;
28958;SDS011;16066;0.000;0.000;2022-10-16T16:20:58;17.20;;;12.47;;
28958;SDS011;16066;0.000;0.000;2022-10-16T16:23:24;19.53;;;14.00;;
28958;SDS011;16066;0.000;0.000;2022-10-16T16:26:24;21.80;;;12.77;;
28958;SDS011;16066;0.000;0.000;2022-10-16T16:28:51;19.30;;;12.87;;
28958;SDS011;16066;0.000;0.000;2022-10-16T16:31:17;15.83;;;11.97;;
28958;SDS011;16066;0.000;0.000;2022-10-16T16:33:43;18.20;;;12.07;;
28958;SDS011;16066;0.000;0.000;2022-10-16T16:36:08;20.10;;;12.60;;
28958;SDS011;16066;0.000;0.000;2022-10-16T16:38:34;15.30;;;12.27;;
28958;SDS011;16066;0.000;0.000;2022-10-16T16:41:00;16.60;;;12.30;;
28958;SDS011;16066;0.000;0.000;2022-10-16T16:43:39;16.80;;;13.60;;
28958;SDS011;16066;0.000;0.000;2022-10-16T16:46:05;16.87;;;11.53;;
28958;SDS011;16066;0.000;0.000;2022-10-16T16:48:31;18.37;;;12.07;;
28958;SDS011;16066;0.000;0.000;2022-10-16T16:50:56;18.57;;;12.03;;
28958;SDS011;16066;0.000;0.000;2022-10-16T16:53:27;16.03;;;11.40;;
28958;SDS011;16066;0.000;0.000;2022-10-16T16:55:52;17.27;;;12.30;;
28958;SDS011;16066;0.000;0.000;2022-10-16T16:58:17;13.50;;;11.57;;
28958;SDS011;16066;0.000;0.000;2022-10-16T17:00:46;13.60;;;10.60;;